| time (UTC) | temp C | wind direction | speed KPH | gust KPH | rain 1hr cm | rain 24hr cm | rain mn cm | humidity % | barometer mb |
| 20260508002104 | 18 | 257 | 14.5 | 20.9 | 0.00 | 0.00 | 0.00 | 87 | 1013.7 |
| 20260508000604 | 18 | 261 | 17.7 | 22.5 | 0.00 | 0.00 | 0.00 | 86 | 1013.8 |
| 20260507235104 | 18 | 256 | 17.7 | 24.1 | 0.00 | 0.00 | 0.00 | 86 | 1013.8 |
| 20260507234605 | 18 | 259 | 19.3 | 27.4 | 0.00 | 0.00 | 0.00 | 86 | 1013.8 |
| 20260507234104 | 18 | 253 | 17.7 | 22.5 | 0.00 | 0.00 | 0.00 | 86 | 1013.9 |
| 20260507233604 | 18 | 258 | 19.3 | 25.7 | 0.00 | 0.00 | 0.00 | 86 | 1013.9 |
| 20260507233104 | 18 | 258 | 19.3 | 24.1 | 0.00 | 0.00 | 0.00 | 86 | 1013.9 |
| 20260507232604 | 18 | 262 | 20.9 | 27.4 | 0.00 | 0.00 | 0.00 | 86 | 1013.9 |
| 20260507232104 | 18 | 257 | 20.9 | 25.7 | 0.00 | 0.00 | 0.00 | 86 | 1013.9 |
| 20260507231104 | 18 | 258 | 20.9 | 29.0 | 0.00 | 0.00 | 0.00 | 86 | 1013.9 |
| 20260507230604 | 18 | 257 | 20.9 | 25.7 | 0.00 | 0.00 | 0.00 | 86 | 1014.0 |
| 20260507230104 | 18 | 256 | 20.9 | 27.4 | 0.00 | 0.00 | 0.00 | 86 | 1014.1 |
| 20260507225604 | 18 | 255 | 19.3 | 27.4 | 0.00 | 0.00 | 0.00 | 86 | 1014.1 |
| 20260507225104 | 18 | 258 | 20.9 | 27.4 | 0.00 | 0.00 | 0.00 | 85 | 1014.0 |
| 20260507224603 | 18 | 254 | 20.9 | 25.7 | 0.00 | 0.00 | 0.00 | 85 | 1014.0 |
| 20260507224105 | 18 | 259 | 19.3 | 27.4 | 0.00 | 0.00 | 0.00 | 85 | 1014.2 |
| 20260507223604 | 18 | 252 | 19.3 | 27.4 | 0.00 | 0.00 | 0.00 | 85 | 1014.3 |
| 20260507223104 | 18 | 253 | 20.9 | 32.2 | 0.00 | 0.00 | 0.00 | 85 | 1014.3 |
| 20260507222604 | 18 | 257 | 20.9 | 29.0 | 0.00 | 0.00 | 0.00 | 85 | 1014.3 |
| 20260507222104 | 18 | 258 | 20.9 | 29.0 | 0.00 | 0.00 | 0.00 | 85 | 1014.4 |
| 20260507221604 | 18 | 255 | 19.3 | 27.4 | 0.00 | 0.00 | 0.00 | 85 | 1014.5 |
| 20260507220603 | 18 | 253 | 20.9 | 29.0 | 0.00 | 0.00 | 0.00 | 85 | 1014.6 |
| 20260507220104 | 18 | 257 | 20.9 | 29.0 | 0.00 | 0.00 | 0.00 | 84 | 1014.7 |
| 20260507215604 | 18 | 255 | 17.7 | 25.7 | 0.00 | 0.00 | 0.00 | 85 | 1014.7 |
| 20260507215104 | 18 | 257 | 19.3 | 25.7 | 0.00 | 0.00 | 0.00 | 84 | 1014.8 |
| 20260507214604 | 18 | 256 | 19.3 | 27.4 | 0.00 | 0.00 | 0.00 | 84 | 1014.9 |
| 20260507214104 | 18 | 253 | 17.7 | 24.1 | 0.00 | 0.00 | 0.00 | 85 | 1014.9 |
| 20260507213604 | 18 | 254 | 19.3 | 24.1 | 0.00 | 0.00 | 0.00 | 85 | 1014.9 |
| 20260507213103 | 18 | 257 | 19.3 | 22.5 | 0.00 | 0.00 | 0.00 | 84 | 1015.0 |
| 20260507212603 | 18 | 256 | 19.3 | 24.1 | 0.00 | 0.00 | 0.00 | 83 | 1015.0 |
| 20260507212104 | 18 | 252 | 17.7 | 22.5 | 0.00 | 0.00 | 0.00 | 84 | 1015.1 |
| 20260507211604 | 18 | 258 | 17.7 | 24.1 | 0.00 | 0.00 | 0.00 | 84 | 1015.1 |
| 20260507211104 | 18 | 257 | 19.3 | 22.5 | 0.00 | 0.00 | 0.00 | 84 | 1015.2 |
| 20260507210605 | 18 | 256 | 17.7 | 20.9 | 0.00 | 0.00 | 0.00 | 84 | 1015.2 |
| 20260507210104 | 18 | 255 | 16.1 | 19.3 | 0.00 | 0.00 | 0.00 | 83 | 1015.3 |
| 20260507205604 | 18 | 256 | 14.5 | 19.3 | 0.00 | 0.00 | 0.00 | 83 | 1015.3 |
| 20260507205104 | 18 | 251 | 16.1 | 20.9 | 0.00 | 0.00 | 0.00 | 82 | 1015.4 |
| 20260507204603 | 18 | 255 | 16.1 | 19.3 | 0.00 | 0.00 | 0.00 | 82 | 1015.4 |
| 20260507204104 | 18 | 254 | 14.5 | 19.3 | 0.00 | 0.00 | 0.00 | 82 | 1015.4 |
| 20260507203604 | 18 | 257 | 14.5 | 19.3 | 0.00 | 0.00 | 0.00 | 83 | 1015.5 |
| 20260507203103 | 18 | 249 | 14.5 | 19.3 | 0.00 | 0.00 | 0.00 | 82 | 1015.5 |
| 20260507202603 | 18 | 252 | 16.1 | 20.9 | 0.00 | 0.00 | 0.00 | 83 | 1015.5 |
| 20260507202104 | 18 | 257 | 16.1 | 19.3 | 0.00 | 0.00 | 0.00 | 83 | 1015.5 |
| 20260507201604 | 18 | 256 | 14.5 | 19.3 | 0.00 | 0.00 | 0.00 | 83 | 1015.6 |
| 20260507201103 | 18 | 256 | 14.5 | 19.3 | 0.00 | 0.00 | 0.00 | 83 | 1015.6 |
| 20260507200603 | 18 | 265 | 14.5 | 19.3 | 0.00 | 0.00 | 0.00 | 83 | 1015.7 |
| 20260507200104 | 18 | 260 | 16.1 | 19.3 | 0.00 | 0.00 | 0.00 | 82 | 1015.8 |
| 20260507195104 | 18 | 261 | 14.5 | 19.3 | 0.00 | 0.00 | 0.00 | 82 | 1015.9 |
| 20260507194603 | 18 | 251 | 14.5 | 19.3 | 0.00 | 0.00 | 0.00 | 82 | 1015.9 |
| 20260507194104 | 18 | 257 | 12.9 | 19.3 | 0.00 | 0.00 | 0.00 | 82 | 1016.0 |
| 20260507193604 | 18 | 250 | 16.1 | 19.3 | 0.00 | 0.00 | 0.00 | 81 | 1016.0 |
| 20260507193103 | 18 | 249 | 12.9 | 19.3 | 0.00 | 0.00 | 0.00 | 82 | 1016.1 |
| 20260507192604 | 18 | 252 | 11.3 | 19.3 | 0.00 | 0.00 | 0.00 | 82 | 1016.1 |
| 20260507191105 | 18 | 252 | 14.5 | 20.9 | 0.00 | 0.00 | 0.00 | 81 | 1016.2 |
| 20260507190605 | 18 | 241 | 11.3 | 19.3 | 0.00 | 0.00 | 0.00 | 81 | 1016.3 |
| 20260507190105 | 18 | 239 | 11.3 | 19.3 | 0.00 | 0.00 | 0.00 | 82 | 1016.3 |
| 20260507185605 | 18 | 236 | 11.3 | 19.3 | 0.00 | 0.00 | 0.00 | 83 | 1016.4 |
| 20260507185105 | 18 | 238 | 14.5 | 19.3 | 0.00 | 0.00 | 0.00 | 83 | 1016.4 |
| 20260507184605 | 18 | 247 | 11.3 | 19.3 | 0.00 | 0.00 | 0.00 | 83 | 1016.5 |
| 20260507183105 | 18 | 247 | 11.3 | 19.3 | 0.00 | 0.00 | 0.00 | 84 | 1016.6 |
| 20260507182606 | 18 | 253 | 12.9 | 19.3 | 0.00 | 0.00 | 0.00 | 84 | 1016.6 |
| 20260507182106 | 18 | 250 | 14.5 | 19.3 | 0.00 | 0.00 | 0.00 | 84 | 1016.6 |
| 20260507181105 | 17 | 257 | 14.5 | 19.3 | 0.00 | 0.00 | 0.00 | 85 | 1016.6 |
| 20260507180605 | 17 | 258 | 12.9 | 19.3 | 0.00 | 0.00 | 0.00 | 85 | 1016.6 |
| 20260507180105 | 17 | 258 | 14.5 | 19.3 | 0.00 | 0.00 | 0.00 | 85 | 1016.6 |
| 20260507175604 | 17 | 259 | 12.9 | 16.1 | 0.00 | 0.00 | 0.00 | 85 | 1016.6 |
| 20260507175105 | 17 | 256 | 14.5 | 19.3 | 0.00 | 0.00 | 0.00 | 85 | 1016.6 |
| 20260507174106 | 17 | 258 | 11.3 | 19.3 | 0.00 | 0.00 | 0.00 | 85 | 1016.7 |
| 20260507173605 | 17 | 262 | 14.5 | 19.3 | 0.00 | 0.00 | 0.00 | 84 | 1016.7 |
| 20260507173105 | 17 | 259 | 14.5 | 16.1 | 0.00 | 0.00 | 0.00 | 84 | 1016.7 |
| 20260507172606 | 17 | 259 | 11.3 | 14.5 | 0.00 | 0.00 | 0.00 | 83 | 1016.7 |
| 20260507172105 | 18 | 256 | 14.5 | 19.3 | 0.00 | 0.00 | 0.00 | 83 | 1016.7 |
| 20260507171105 | 18 | 241 | 11.3 | 16.1 | 0.00 | 0.00 | 0.00 | 81 | 1016.6 |
| 20260507170605 | 18 | 202 | 4.8 | 11.3 | 0.00 | 0.00 | 0.00 | 82 | 1016.7 |
| 20260507170105 | 18 | 242 | 11.3 | 14.5 | 0.00 | 0.00 | 0.00 | 81 | 1016.7 |
| 20260507165604 | 18 | 252 | 9.7 | 14.5 | 0.00 | 0.00 | 0.00 | 81 | 1016.7 |
| 20260507165106 | 18 | 226 | 4.8 | 12.9 | 0.00 | 0.00 | 0.00 | 82 | 1016.7 |
| 20260507164605 | 18 | 248 | 8.0 | 12.9 | 0.00 | 0.00 | 0.00 | 82 | 1016.7 |
| 20260507164105 | 18 | 248 | 8.0 | 12.9 | 0.00 | 0.00 | 0.00 | 82 | 1016.7 |
| 20260507163606 | 18 | 247 | 8.0 | 12.9 | 0.00 | 0.00 | 0.00 | 81 | 1016.7 |
| 20260507163105 | 18 | 243 | 8.0 | 12.9 | 0.00 | 0.00 | 0.00 | 80 | 1016.8 |
| 20260507162104 | 18 | 251 | 3.2 | 8.0 | 0.00 | 0.00 | 0.00 | 83 | 1016.8 |
| 20260507161605 | 18 | 240 | 3.2 | 11.3 | 0.00 | 0.00 | 0.00 | 82 | 1016.7 |
| 20260507161105 | 18 | 228 | 6.4 | 12.9 | 0.00 | 0.00 | 0.00 | 82 | 1016.8 |
| 20260507160606 | 18 | 242 | 4.8 | 8.0 | 0.00 | 0.00 | 0.00 | 83 | 1016.8 |
| 20260507160106 | 18 | 239 | 4.8 | 8.0 | 0.00 | 0.00 | 0.00 | 83 | 1016.8 |
| 20260507155605 | 18 | 198 | 1.6 | 4.8 | 0.00 | 0.00 | 0.00 | 84 | 1016.8 |
| 20260507155104 | 18 | 148 | 3.2 | 8.0 | 0.00 | 0.00 | 0.00 | 84 | 1016.9 |
| 20260507154605 | 18 | 246 | 4.8 | 8.0 | 0.00 | 0.00 | 0.00 | 84 | 1016.9 |
| 20260507153605 | 17 | 239 | 4.8 | 9.7 | 0.00 | 0.00 | 0.00 | 84 | 1016.8 |
| 20260507153105 | 18 | 253 | 3.2 | 4.8 | 0.00 | 0.00 | 0.00 | 85 | 1016.8 |
| 20260507152605 | 18 | 242 | 4.8 | 9.7 | 0.00 | 0.00 | 0.00 | 85 | 1016.9 |
| 20260507152105 | 17 | 16 | 1.6 | 4.8 | 0.00 | 0.00 | 0.00 | 85 | 1016.9 |
| 20260507151606 | 17 | 16 | 1.6 | 4.8 | 0.00 | 0.00 | 0.00 | 86 | 1016.9 |
| 20260507151105 | 17 | 15 | 3.2 | 4.8 | 0.00 | 0.00 | 0.00 | 87 | 1017.0 |
| 20260507150104 | 17 | 8 | 1.6 | 3.2 | 0.00 | 0.00 | 0.00 | 88 | 1016.9 |
| 20260507145605 | 17 | 8 | 1.6 | 3.2 | 0.00 | 0.00 | 0.00 | 89 | 1016.9 |
| 20260507145105 | 17 | 8 | 1.6 | 3.2 | 0.00 | 0.00 | 0.00 | 89 | 1016.9 |
| 20260507144604 | 17 | 8 | 1.6 | 3.2 | 0.00 | 0.00 | 0.00 | 90 | 1016.8 |
| 20260507143105 | 16 | 8 | 1.6 | 3.2 | 0.00 | 0.00 | 0.00 | 91 | 1016.6 |
| 20260507142104 | 16 | 359 | 1.6 | 3.2 | 0.00 | 0.00 | 0.00 | 92 | 1016.6 |
| 20260507141605 | 16 | 359 | 0.0 | 3.2 | 0.00 | 0.00 | 0.00 | 92 | 1016.6 |
| 20260507141105 | 16 | 359 | 3.2 | 3.2 | 0.00 | 0.00 | 0.00 | 93 | 1016.6 |
| 20260507140605 | 16 | 359 | 1.6 | 1.6 | 0.00 | 0.00 | 0.00 | 93 | 1016.5 |
| 20260507140106 | 15 | 359 | 0.0 | 3.2 | 0.00 | 0.00 | 0.00 | 94 | 1016.5 |
| 20260507135605 | 15 | 359 | 1.6 | 1.6 | 0.00 | 0.00 | 0.00 | 94 | 1016.4 |
| 20260507134605 | 14 | 359 | 0.0 | 1.6 | 0.00 | 0.00 | 0.00 | 94 | 1016.3 |
| 20260507134105 | 14 | 359 | 1.6 | 1.6 | 0.00 | 0.00 | 0.00 | 93 | 1016.3 |
| 20260507133605 | 14 | 359 | 0.0 | 1.6 | 0.00 | 0.00 | 0.00 | 93 | 1016.2 |
| 20260507133105 | 14 | 359 | 1.6 | 3.2 | 0.00 | 0.00 | 0.00 | 93 | 1016.1 |
| 20260507131604 | 13 | 359 | 0.0 | 0.0 | 0.00 | 0.00 | 0.00 | 93 | 1016.1 |
| 20260507130604 | 13 | 359 | 0.0 | 1.6 | 0.00 | 0.00 | 0.00 | 93 | 1016.0 |
| 20260507130105 | 13 | 359 | 0.0 | 0.0 | 0.00 | 0.00 | 0.00 | 92 | 1016.0 |
| 20260507125604 | 13 | 359 | 0.0 | 1.6 | 0.00 | 0.00 | 0.00 | 92 | 1015.9 |
| 20260507125105 | 13 | 359 | 1.6 | 1.6 | 0.00 | 0.00 | 0.00 | 93 | 1015.9 |
| 20260507124605 | 13 | 359 | 0.0 | 0.0 | 0.00 | 0.00 | 0.00 | 92 | 1015.9 |
| 20260507123604 | 13 | 359 | 0.0 | 0.0 | 0.00 | 0.00 | 0.00 | 92 | 1015.9 |
| 20260507123105 | 13 | 359 | 0.0 | 0.0 | 0.00 | 0.00 | 0.00 | 92 | 1015.9 |
| 20260507122604 | 13 | 359 | 0.0 | 0.0 | 0.00 | 0.00 | 0.00 | 92 | 1015.9 |
| 20260507122105 | 13 | 359 | 0.0 | 0.0 | 0.00 | 0.00 | 0.00 | 92 | 1015.9 |
| 20260507121604 | 13 | 359 | 0.0 | 0.0 | 0.00 | 0.00 | 0.00 | 92 | 1015.9 |
| 20260507120604 | 13 | 359 | 0.0 | 0.0 | 0.00 | 0.00 | 0.00 | 92 | 1015.9 |
| 20260507120104 | 13 | 359 | 0.0 | 0.0 | 0.00 | 0.00 | 0.00 | 92 | 1016.0 |
| 20260507115605 | 14 | 359 | 0.0 | 1.6 | 0.00 | 0.00 | 0.00 | 92 | 1016.0 |
| 20260507115105 | 14 | 359 | 0.0 | 1.6 | 0.00 | 0.00 | 0.00 | 92 | 1016.0 |
| 20260507114606 | 14 | 359 | 1.6 | 1.6 | 0.00 | 0.00 | 0.00 | 92 | 1016.0 |
| 20260507114105 | 14 | 359 | 0.0 | 1.6 | 0.00 | 0.00 | 0.00 | 92 | 1016.0 |
| 20260507113604 | 14 | 359 | 0.0 | 1.6 | 0.00 | 0.00 | 0.00 | 91 | 1016.0 |
| 20260507113105 | 14 | 359 | 0.0 | 1.6 | 0.00 | 0.00 | 0.00 | 91 | 1016.0 |
| 20260507112604 | 14 | 359 | 1.6 | 3.2 | 0.00 | 0.00 | 0.00 | 91 | 1016.1 |
| 20260507112105 | 14 | 359 | 0.0 | 1.6 | 0.00 | 0.00 | 0.00 | 91 | 1016.0 |
| 20260507111605 | 14 | 359 | 0.0 | 1.6 | 0.00 | 0.00 | 0.00 | 91 | 1016.1 |
| 20260507111105 | 14 | 359 | 0.0 | 0.0 | 0.00 | 0.00 | 0.00 | 91 | 1016.1 |
| 20260507110604 | 14 | 359 | 0.0 | 0.0 | 0.00 | 0.00 | 0.00 | 91 | 1016.1 |
| 20260507110105 | 14 | 359 | 0.0 | 0.0 | 0.00 | 0.00 | 0.00 | 91 | 1016.2 |
| 20260507105605 | 14 | 359 | 0.0 | 1.6 | 0.00 | 0.00 | 0.00 | 91 | 1016.2 |
| 20260507105105 | 14 | 359 | 0.0 | 0.0 | 0.00 | 0.00 | 0.00 | 90 | 1016.3 |
| 20260507104104 | 14 | 359 | 0.0 | 0.0 | 0.00 | 0.00 | 0.00 | 90 | 1016.3 |
| 20260507103604 | 14 | 359 | 0.0 | 1.6 | 0.00 | 0.00 | 0.00 | 91 | 1016.3 |
| 20260507102605 | 14 | 359 | 1.6 | 1.6 | 0.00 | 0.00 | 0.00 | 90 | 1016.4 |
| 20260507102105 | 14 | 359 | 1.6 | 1.6 | 0.00 | 0.00 | 0.00 | 90 | 1016.4 |
| 20260507101604 | 15 | 359 | 1.6 | 1.6 | 0.00 | 0.00 | 0.00 | 90 | 1016.4 |
| 20260507100104 | 15 | 359 | 0.0 | 1.6 | 0.00 | 0.00 | 0.00 | 90 | 1016.4 |
| 20260507095105 | 15 | 359 | 0.0 | 1.6 | 0.00 | 0.00 | 0.00 | 90 | 1016.4 |
| 20260507094605 | 15 | 359 | 1.6 | 1.6 | 0.00 | 0.00 | 0.00 | 90 | 1016.4 |
| 20260507094104 | 15 | 359 | 0.0 | 0.0 | 0.00 | 0.00 | 0.00 | 90 | 1016.5 |
| 20260507093604 | 15 | 359 | 0.0 | 1.6 | 0.00 | 0.00 | 0.00 | 90 | 1016.6 |
| 20260507093105 | 15 | 359 | 1.6 | 1.6 | 0.00 | 0.00 | 0.00 | 89 | 1016.6 |
| 20260507092605 | 15 | 359 | 0.0 | 1.6 | 0.00 | 0.00 | 0.00 | 89 | 1016.6 |
| 20260507092106 | 15 | 359 | 0.0 | 1.6 | 0.00 | 0.00 | 0.00 | 89 | 1016.7 |
| 20260507091604 | 15 | 359 | 0.0 | 1.6 | 0.00 | 0.00 | 0.00 | 89 | 1016.8 |
| 20260507091105 | 15 | 359 | 0.0 | 1.6 | 0.00 | 0.00 | 0.00 | 89 | 1016.8 |
| 20260507090604 | 15 | 359 | 1.6 | 3.2 | 0.00 | 0.00 | 0.00 | 89 | 1016.9 |
| 20260507090105 | 15 | 359 | 0.0 | 1.6 | 0.00 | 0.00 | 0.00 | 88 | 1016.9 |
| 20260507085605 | 15 | 359 | 0.0 | 0.0 | 0.00 | 0.00 | 0.00 | 88 | 1016.9 |
| 20260507085104 | 15 | 359 | 0.0 | 1.6 | 0.00 | 0.00 | 0.00 | 88 | 1017.0 |
| 20260507084605 | 15 | 359 | 0.0 | 1.6 | 0.00 | 0.00 | 0.00 | 88 | 1017.0 |
| 20260507084104 | 15 | 359 | 1.6 | 3.2 | 0.00 | 0.00 | 0.00 | 89 | 1017.0 |
| 20260507083604 | 15 | 359 | 1.6 | 3.2 | 0.00 | 0.00 | 0.00 | 89 | 1017.0 |
| 20260507083104 | 15 | 359 | 1.6 | 1.6 | 0.00 | 0.00 | 0.00 | 88 | 1017.1 |
| 20260507082605 | 16 | 359 | 0.0 | 1.6 | 0.00 | 0.00 | 0.00 | 88 | 1017.1 |
| 20260507082104 | 16 | 359 | 0.0 | 1.6 | 0.00 | 0.00 | 0.00 | 88 | 1017.1 |
| 20260507081605 | 16 | 359 | 0.0 | 3.2 | 0.00 | 0.00 | 0.00 | 88 | 1017.2 |
| 20260507081104 | 16 | 359 | 1.6 | 3.2 | 0.00 | 0.00 | 0.00 | 88 | 1017.2 |
| 20260507080605 | 16 | 359 | 1.6 | 3.2 | 0.00 | 0.00 | 0.00 | 88 | 1017.3 |
| 20260507080104 | 16 | 359 | 0.0 | 4.8 | 0.00 | 0.00 | 0.00 | 88 | 1017.3 |
| 20260507075604 | 16 | 359 | 1.6 | 4.8 | 0.00 | 0.00 | 0.00 | 88 | 1017.2 |
| 20260507075105 | 16 | 359 | 3.2 | 4.8 | 0.00 | 0.00 | 0.00 | 88 | 1017.3 |
| 20260507074104 | 16 | 359 | 1.6 | 3.2 | 0.00 | 0.00 | 0.00 | 87 | 1017.3 |
| 20260507073605 | 16 | 359 | 1.6 | 3.2 | 0.00 | 0.00 | 0.00 | 87 | 1017.3 |
| 20260507073105 | 16 | 359 | 0.0 | 4.8 | 0.00 | 0.00 | 0.00 | 87 | 1017.4 |
| 20260507072605 | 16 | 359 | 1.6 | 4.8 | 0.00 | 0.00 | 0.00 | 87 | 1017.4 |
| 20260507072104 | 16 | 359 | 1.6 | 4.8 | 0.00 | 0.00 | 0.00 | 87 | 1017.4 |
| 20260507071105 | 16 | 359 | 1.6 | 3.2 | 0.00 | 0.00 | 0.00 | 87 | 1017.4 |
| 20260507070605 | 16 | 359 | 1.6 | 4.8 | 0.00 | 0.00 | 0.00 | 87 | 1017.4 |
| 20260507070104 | 16 | 359 | 3.2 | 4.8 | 0.00 | 0.00 | 0.00 | 87 | 1017.4 |
| 20260507065605 | 16 | 359 | 1.6 | 4.8 | 0.00 | 0.00 | 0.00 | 86 | 1017.4 |
| 20260507065106 | 16 | 358 | 1.6 | 4.8 | 0.00 | 0.00 | 0.00 | 86 | 1017.4 |
| 20260507064604 | 16 | 356 | 1.6 | 4.8 | 0.00 | 0.00 | 0.00 | 86 | 1017.5 |
| 20260507064104 | 16 | 356 | 1.6 | 3.2 | 0.00 | 0.00 | 0.00 | 86 | 1017.5 |
| 20260507063605 | 16 | 355 | 1.6 | 4.8 | 0.00 | 0.00 | 0.00 | 86 | 1017.5 |
| 20260507063105 | 16 | 357 | 3.2 | 4.8 | 0.00 | 0.00 | 0.00 | 87 | 1017.5 |
| 20260507062604 | 16 | 355 | 3.2 | 4.8 | 0.00 | 0.00 | 0.00 | 87 | 1017.4 |
| 20260507061104 | 16 | 352 | 3.2 | 4.8 | 0.00 | 0.00 | 0.00 | 88 | 1017.4 |
| 20260507060105 | 16 | 265 | 3.2 | 4.8 | 0.00 | 0.00 | 0.00 | 88 | 1017.5 |
| 20260507055604 | 16 | 270 | 0.0 | 3.2 | 0.00 | 0.00 | 0.00 | 88 | 1017.5 |
| 20260507055105 | 16 | 271 | 0.0 | 1.6 | 0.00 | 0.00 | 0.00 | 89 | 1017.4 |
| 20260507054604 | 16 | 274 | 0.0 | 1.6 | 0.00 | 0.00 | 0.00 | 89 | 1017.4 |
| 20260507054105 | 16 | 267 | 0.0 | 3.2 | 0.00 | 0.00 | 0.00 | 89 | 1017.5 |
| 20260507053604 | 16 | 271 | 1.6 | 3.2 | 0.00 | 0.00 | 0.00 | 89 | 1017.5 |
| 20260507053104 | 16 | 268 | 1.6 | 3.2 | 0.00 | 0.00 | 0.00 | 89 | 1017.5 |
| 20260507052604 | 16 | 266 | 1.6 | 4.8 | 0.00 | 0.00 | 0.00 | 89 | 1017.4 |
| 20260507052105 | 16 | 262 | 3.2 | 4.8 | 0.00 | 0.00 | 0.00 | 89 | 1017.5 |
| 20260507051604 | 16 | 262 | 4.8 | 9.7 | 0.00 | 0.00 | 0.00 | 89 | 1017.5 |
| 20260507051104 | 16 | 264 | 6.4 | 11.3 | 0.00 | 0.00 | 0.00 | 89 | 1017.4 |
| 20260507050605 | 16 | 265 | 6.4 | 11.3 | 0.00 | 0.00 | 0.00 | 88 | 1017.5 |
| 20260507050105 | 16 | 263 | 8.0 | 12.9 | 0.00 | 0.00 | 0.00 | 87 | 1017.5 |
| 20260507045605 | 17 | 262 | 6.4 | 11.3 | 0.00 | 0.00 | 0.00 | 87 | 1017.5 |
| 20260507045104 | 17 | 262 | 4.8 | 9.7 | 0.00 | 0.00 | 0.00 | 87 | 1017.5 |
| 20260507044604 | 17 | 262 | 4.8 | 9.7 | 0.00 | 0.00 | 0.00 | 87 | 1017.4 |
| 20260507044104 | 17 | 267 | 4.8 | 9.7 | 0.00 | 0.00 | 0.00 | 86 | 1017.4 |
| 20260507043605 | 17 | 262 | 6.4 | 11.3 | 0.00 | 0.00 | 0.00 | 86 | 1017.3 |
| 20260507043104 | 17 | 262 | 4.8 | 9.7 | 0.00 | 0.00 | 0.00 | 84 | 1017.3 |
| 20260507042605 | 17 | 262 | 4.8 | 9.7 | 0.00 | 0.00 | 0.00 | 83 | 1017.3 |
| 20260507042104 | 17 | 263 | 9.7 | 11.3 | 0.00 | 0.00 | 0.00 | 82 | 1017.2 |
| 20260507041605 | 17 | 293 | 1.6 | 4.8 | 0.00 | 0.00 | 0.00 | 79 | 1017.2 |
| 20260507041105 | 17 | 293 | 3.2 | 4.8 | 0.00 | 0.00 | 0.00 | 79 | 1017.1 |
| 20260507040604 | 17 | 293 | 3.2 | 4.8 | 0.00 | 0.00 | 0.00 | 78 | 1017.1 |
| 20260507040105 | 17 | 294 | 3.2 | 4.8 | 0.00 | 0.00 | 0.00 | 78 | 1017.1 |
| 20260507035104 | 18 | 338 | 1.6 | 8.0 | 0.00 | 0.00 | 0.00 | 76 | 1017.0 |
| 20260507034605 | 18 | 334 | 4.8 | 11.3 | 0.00 | 0.00 | 0.00 | 76 | 1016.9 |
| 20260507034104 | 18 | 304 | 3.2 | 4.8 | 0.00 | 0.00 | 0.00 | 76 | 1016.9 |
| 20260507033604 | 18 | 281 | 4.8 | 11.3 | 0.00 | 0.00 | 0.00 | 77 | 1016.9 |
| 20260507032107 | 17 | 4 | 3.2 | 4.8 | 0.00 | 0.00 | 0.00 | 75 | 1016.8 |
| 20260507031605 | 17 | 352 | 1.6 | 4.8 | 0.00 | 0.00 | 0.00 | 75 | 1016.6 |
| 20260507031104 | 17 | 354 | 1.6 | 8.0 | 0.00 | 0.00 | 0.00 | 77 | 1016.6 |
| 20260507030604 | 17 | 355 | 3.2 | 4.8 | 0.00 | 0.00 | 0.00 | 77 | 1016.5 |
| 20260507025604 | 18 | 261 | 1.6 | 4.8 | 0.00 | 0.00 | 0.00 | 80 | 1016.5 |
| 20260507025105 | 18 | 257 | 1.6 | 8.0 | 0.00 | 0.00 | 0.00 | 80 | 1016.5 |
| 20260507024604 | 18 | 244 | 6.4 | 11.3 | 0.00 | 0.00 | 0.00 | 78 | 1016.5 |
| 20260507023604 | 17 | 293 | 3.2 | 12.9 | 0.00 | 0.00 | 0.00 | 81 | 1016.3 |
| 20260507023103 | 17 | 265 | 6.4 | 9.7 | 0.00 | 0.00 | 0.00 | 81 | 1016.2 |
| 20260507022604 | 17 | 266 | 6.4 | 9.7 | 0.00 | 0.00 | 0.00 | 82 | 1016.3 |
| 20260507022104 | 17 | 266 | 8.0 | 12.9 | 0.00 | 0.00 | 0.00 | 82 | 1016.2 |
| 20260507021604 | 17 | 267 | 9.7 | 14.5 | 0.00 | 0.00 | 0.00 | 82 | 1016.1 |
| 20260507021105 | 17 | 257 | 11.3 | 16.1 | 0.00 | 0.00 | 0.00 | 82 | 1016.1 |
| 20260507020604 | 17 | 260 | 11.3 | 14.5 | 0.00 | 0.00 | 0.00 | 82 | 1016.1 |
| 20260507020105 | 17 | 266 | 11.3 | 16.1 | 0.00 | 0.00 | 0.00 | 83 | 1016.0 |
| 20260507015604 | 17 | 255 | 11.3 | 16.1 | 0.00 | 0.00 | 0.00 | 83 | 1016.1 |
| 20260507015104 | 17 | 260 | 11.3 | 16.1 | 0.00 | 0.00 | 0.00 | 84 | 1016.0 |
| 20260507014604 | 17 | 255 | 12.9 | 19.3 | 0.00 | 0.00 | 0.00 | 84 | 1016.0 |
| 20260507014104 | 17 | 263 | 12.9 | 19.3 | 0.00 | 0.00 | 0.00 | 84 | 1015.9 |
| 20260507013604 | 18 | 249 | 12.9 | 19.3 | 0.00 | 0.00 | 0.00 | 84 | 1015.9 |
| 20260507012104 | 17 | 263 | 12.9 | 19.3 | 0.00 | 0.00 | 0.00 | 84 | 1015.8 |
| 20260507011604 | 17 | 262 | 12.9 | 19.3 | 0.00 | 0.00 | 0.00 | 84 | 1015.8 |
| 20260507011104 | 17 | 259 | 16.1 | 20.9 | 0.00 | 0.00 | 0.00 | 84 | 1015.8 |
| 20260507010105 | 18 | 261 | 14.5 | 24.1 | 0.00 | 0.00 | 0.00 | 85 | 1015.6 |
| 20260507005604 | 18 | 254 | 14.5 | 22.5 | 0.00 | 0.00 | 0.00 | 85 | 1015.6 |
| 20260507005104 | 18 | 258 | 16.1 | 22.5 | 0.00 | 0.00 | 0.00 | 85 | 1015.6 |
| 20260507004604 | 18 | 262 | 17.7 | 25.7 | 0.00 | 0.00 | 0.00 | 85 | 1015.6 |
| 20260507004104 | 18 | 256 | 17.7 | 27.4 | 0.00 | 0.00 | 0.00 | 85 | 1015.6 |
| 20260507003604 | 18 | 254 | 17.7 | 25.7 | 0.00 | 0.00 | 0.00 | 85 | 1015.7 |
| 20260507003105 | 18 | 258 | 20.9 | 29.0 | 0.00 | 0.00 | 0.00 | 84 | 1015.7 |